createdAt,value
2022-07-31T00:03:06.294Z,15.44
2022-07-31T00:08:08.113Z,15.39
2022-07-31T00:13:10.304Z,15.29
2022-07-31T00:18:11.386Z,15.2
2022-07-31T00:23:12.779Z,15.12
2022-07-31T00:28:14.386Z,15.01
2022-07-31T00:33:16.275Z,14.92
2022-07-31T00:38:26.753Z,14.87
2022-07-31T00:43:19.353Z,14.8
2022-07-31T00:48:21.041Z,14.72
2022-07-31T00:53:22.857Z,14.68
2022-07-31T00:58:24.844Z,14.61
2022-07-31T01:03:26.212Z,14.56
2022-07-31T01:08:28.272Z,14.5
2022-07-31T01:13:29.663Z,14.44
2022-07-31T01:18:30.740Z,14.4
2022-07-31T01:23:32.847Z,14.39
2022-07-31T01:28:34.253Z,14.37
2022-07-31T01:33:36.273Z,14.4
2022-07-31T01:38:37.448Z,14.41
2022-07-31T01:43:38.991Z,14.42
2022-07-31T01:48:40.991Z,14.42
2022-07-31T01:53:42.626Z,14.43
2022-07-31T01:58:44.495Z,14.44
2022-07-31T02:03:46.585Z,14.43
2022-07-31T02:08:48.598Z,14.44
2022-07-31T02:13:50.681Z,14.44
2022-07-31T02:18:52.695Z,14.43
2022-07-31T02:23:54.737Z,14.42
2022-07-31T02:54:05.702Z,14.33
2022-07-31T02:59:07.433Z,14.35
2022-07-31T03:24:16.177Z,14.56
2022-07-31T03:29:39.405Z,14.59
2022-07-31T03:44:23.388Z,14.72
2022-07-31T03:49:25.095Z,14.76
2022-07-31T03:54:26.150Z,14.77
2022-07-31T03:59:27.632Z,14.8
2022-07-31T04:04:29.160Z,14.81
2022-07-31T04:09:31.245Z,14.84
2022-07-31T04:14:32.988Z,14.86
2022-07-31T04:19:34.299Z,14.91
2022-07-31T04:24:35.957Z,14.94
2022-07-31T04:29:37.378Z,14.97
2022-07-31T04:34:38.626Z,15.02
2022-07-31T04:39:40.115Z,15.07
2022-07-31T04:44:42.012Z,15.11
2022-07-31T04:49:44.098Z,15.16
2022-07-31T04:54:45.937Z,15.24
2022-07-31T04:59:58.391Z,15.32
2022-07-31T05:04:52.479Z,15.4
2022-07-31T05:09:50.117Z,15.5
2022-07-31T05:14:52.253Z,15.56
2022-07-31T05:19:53.600Z,15.66
2022-07-31T05:24:55.460Z,15.79
2022-07-31T05:29:56.810Z,15.88
2022-07-31T05:34:58.363Z,16
2022-07-31T05:40:00.301Z,16.12
2022-07-31T05:45:01.675Z,16.27
2022-07-31T05:50:03.484Z,16.45
2022-07-31T05:55:04.706Z,16.62
2022-07-31T06:00:06.875Z,16.79
2022-07-31T06:05:08.073Z,16.95
2022-07-31T06:10:09.625Z,17.1
2022-07-31T06:15:11.642Z,17.21
2022-07-31T06:20:13.301Z,17.34
2022-07-31T06:25:15.408Z,17.43
2022-07-31T06:30:17.227Z,17.53
2022-07-31T06:35:18.917Z,17.67
2022-07-31T06:40:20.207Z,17.82
2022-07-31T06:45:41.822Z,17.98
2022-07-31T06:50:23.264Z,18.12
2022-07-31T06:55:24.782Z,18.24
2022-07-31T07:00:26.102Z,18.39
2022-07-31T07:05:28.071Z,18.56
2022-07-31T07:10:29.692Z,18.7
2022-07-31T07:15:31.069Z,18.84
2022-07-31T07:20:32.879Z,18.94
2022-07-31T07:25:35.093Z,19.12
2022-07-31T07:30:36.897Z,19.27
2022-07-31T07:35:38.856Z,19.41
2022-07-31T07:40:40.084Z,19.51
2022-07-31T07:45:41.648Z,19.6
2022-07-31T07:50:43.133Z,19.75
2022-07-31T07:55:44.470Z,20.01
2022-07-31T08:00:46.411Z,20.31
2022-07-31T08:05:48.339Z,20.49
2022-07-31T08:10:49.924Z,20.61
2022-07-31T08:15:51.154Z,20.76
2022-07-31T08:20:53.192Z,21.03
2022-07-31T08:25:55.352Z,21.61
2022-07-31T08:30:57.117Z,21.89
2022-07-31T08:35:58.524Z,22.22
2022-07-31T08:41:06.433Z,22.73
2022-07-31T08:46:08.621Z,23.02
2022-07-31T08:51:10.407Z,23.59
2022-07-31T08:56:11.706Z,23.92
2022-07-31T09:01:13.793Z,24.14
2022-07-31T09:06:15.504Z,24.09
2022-07-31T09:11:16.716Z,24.14
2022-07-31T09:16:21.581Z,24.26
2022-07-31T09:21:20.342Z,24.3
2022-07-31T09:26:21.734Z,24.47
2022-07-31T09:31:23.336Z,24.67
2022-07-31T09:36:24.571Z,25.19
2022-07-31T09:41:56.102Z,25.3
2022-07-31T09:46:28.094Z,25.68
2022-07-31T09:51:29.504Z,25.94
2022-07-31T09:56:31.627Z,26.51
2022-07-31T10:01:33.908Z,26.88
2022-07-31T10:06:34.890Z,27.2
2022-07-31T10:11:36.684Z,27.4
2022-07-31T10:16:38.140Z,27.53
2022-07-31T10:21:39.713Z,27.61
2022-07-31T10:31:43.874Z,27.66
2022-07-31T10:36:45.702Z,27.77
2022-07-31T10:41:47.683Z,27.75
2022-07-31T10:46:49.068Z,27.79
2022-07-31T10:51:51.021Z,28
2022-07-31T10:56:53.014Z,27.81
2022-07-31T11:01:54.513Z,27.98
2022-07-31T11:06:55.840Z,27.73
2022-07-31T11:11:57.119Z,27.69
2022-07-31T11:16:58.880Z,27.17
2022-07-31T11:22:00.477Z,27.1
2022-07-31T11:27:02.811Z,26.93
2022-07-31T11:32:04.388Z,27.26
2022-07-31T11:37:06.601Z,27.1
2022-07-31T11:42:07.474Z,27.08
2022-07-31T11:47:27.746Z,26.93
2022-07-31T11:52:10.518Z,26.93
2022-07-31T11:57:12.522Z,26.91
2022-07-31T12:02:14.398Z,26.66
2022-07-31T12:07:15.999Z,26.92
2022-07-31T12:12:17.800Z,27.57
2022-07-31T12:17:19.744Z,27.96
2022-07-31T12:22:21.517Z,28.1
2022-07-31T12:27:22.959Z,28.33
2022-07-31T12:32:24.714Z,28.52
2022-07-31T12:37:25.977Z,28.36
2022-07-31T12:42:30.649Z,28.38
2022-07-31T12:47:29.619Z,28.43
2022-07-31T12:52:31.224Z,28.4
2022-07-31T12:57:32.628Z,28.16
2022-07-31T13:02:34.258Z,28.22
2022-07-31T13:07:35.852Z,28.22
2022-07-31T13:12:37.044Z,28.08
2022-07-31T13:17:42.269Z,27.95
2022-07-31T13:22:39.928Z,28.08
2022-07-31T13:27:41.359Z,28.01
2022-07-31T13:32:42.681Z,28.06
2022-07-31T13:37:44.371Z,28.11
2022-07-31T13:42:46.235Z,28.29
2022-07-31T13:47:51.170Z,28.45
2022-07-31T13:52:48.833Z,28.08
2022-07-31T13:57:50.484Z,28.08
2022-07-31T14:02:51.825Z,28.18
2022-07-31T14:07:53.237Z,28.27
2022-07-31T14:12:54.595Z,28.28
2022-07-31T14:17:56.625Z,28.31
2022-07-31T14:22:58.303Z,28.32
2022-07-31T14:28:00.128Z,28.38
2022-07-31T14:33:01.969Z,28.48
2022-07-31T14:38:04.524Z,28.42
2022-07-31T14:43:05.799Z,27.76
2022-07-31T14:48:07.373Z,27.82
2022-07-31T14:53:08.855Z,27.67
2022-07-31T14:58:10.289Z,27.59
2022-07-31T15:03:12.344Z,27.44
2022-07-31T15:08:14.289Z,27.35
2022-07-31T15:13:15.826Z,27.34
2022-07-31T15:18:17.038Z,27.3
2022-07-31T15:23:18.345Z,27.3
2022-07-31T15:28:20.004Z,27.33
2022-07-31T15:33:21.306Z,27.24
2022-07-31T15:38:22.925Z,27.14
2022-07-31T15:43:24.553Z,27.17
2022-07-31T15:48:26.490Z,27.1
2022-07-31T15:53:30.071Z,27.21
2022-07-31T15:58:29.286Z,27.19
2022-07-31T16:03:47.245Z,27.02
2022-07-31T16:08:35.328Z,27
2022-07-31T16:13:34.240Z,26.96
2022-07-31T16:18:35.749Z,26.93
2022-07-31T16:23:45.612Z,26.89
2022-07-31T16:28:39.288Z,26.85
2022-07-31T16:33:40.812Z,26.81
2022-07-31T16:38:45.839Z,26.8
2022-07-31T16:43:48.815Z,26.75
2022-07-31T16:48:46.098Z,26.65
2022-07-31T16:58:52.665Z,26.44
2022-07-31T17:03:59.706Z,26.38
2022-07-31T17:08:52.319Z,26.28
2022-07-31T17:13:53.696Z,26.18
2022-07-31T17:44:11.523Z,25.78
2022-07-31T17:59:08.896Z,25.61
2022-07-31T18:14:14.112Z,25.31
2022-07-31T18:19:15.537Z,25.21
2022-07-31T18:29:19.631Z,24.93
2022-07-31T18:34:21.176Z,24.83
2022-07-31T18:39:23.318Z,24.67
2022-07-31T18:44:25.242Z,24.56
2022-07-31T18:50:57.695Z,24.41
2022-07-31T18:54:29.114Z,24.28
2022-07-31T18:59:39.425Z,24.13
2022-07-31T19:04:31.717Z,23.96
2022-07-31T19:09:33.139Z,23.8
2022-07-31T19:14:34.730Z,23.64
2022-07-31T19:19:43.547Z,23.5
2022-07-31T19:24:38.550Z,23.35
2022-07-31T19:29:39.979Z,23.26
2022-07-31T19:34:42.200Z,23.17
2022-07-31T19:39:43.606Z,23.07
2022-07-31T19:44:45.239Z,22.98
2022-07-31T19:49:47.382Z,22.89
2022-07-31T19:54:48.976Z,22.79
2022-07-31T19:59:50.271Z,22.67
2022-07-31T20:04:52.332Z,22.56
2022-07-31T20:09:53.706Z,22.46
2022-07-31T20:14:55.066Z,22.37
2022-07-31T20:20:04.657Z,22.3
2022-07-31T20:24:57.837Z,22.23
2022-07-31T20:29:59.195Z,22.17
2022-07-31T20:35:01.242Z,22.13
2022-07-31T20:40:03.139Z,22.08
2022-07-31T20:45:04.779Z,22.03
2022-07-31T20:50:06.875Z,21.97
2022-07-31T20:55:08.392Z,21.9
2022-07-31T21:00:10.318Z,21.87
2022-07-31T21:05:11.737Z,21.81
2022-07-31T21:10:13.055Z,21.74
2022-07-31T21:15:28.518Z,21.67
2022-07-31T21:20:16.800Z,21.56
2022-07-31T21:25:18.514Z,21.49
2022-07-31T21:30:19.795Z,21.39
2022-07-31T21:35:21.834Z,21.3
2022-07-31T21:40:23.292Z,21.19
2022-07-31T21:45:24.682Z,21.09
2022-07-31T21:50:28.896Z,20.98
2022-07-31T21:55:27.514Z,20.85
2022-07-31T22:15:50.672Z,20.53
2022-07-31T22:20:35.764Z,20.45
2022-07-31T22:25:37.632Z,20.4
2022-07-31T22:30:39.691Z,20.29
2022-07-31T22:35:41.643Z,20.23
2022-07-31T22:40:43.955Z,20.16
2022-07-31T22:45:45.322Z,20.09
2022-07-31T22:50:46.517Z,20.01
2022-07-31T22:55:47.956Z,19.94
2022-07-31T23:00:49.558Z,19.87
2022-07-31T23:06:02.039Z,19.81
2022-07-31T23:10:52.499Z,19.74
2022-07-31T23:15:54.504Z,19.69
2022-07-31T23:20:56.186Z,19.61
2022-07-31T23:25:57.411Z,19.53
2022-07-31T23:30:59.568Z,19.45
2022-07-31T23:36:01.311Z,19.41
2022-07-31T23:41:03.166Z,19.36
2022-07-31T23:46:05.270Z,19.29
2022-07-31T23:51:07.389Z,19.27
2022-07-31T23:56:14.364Z,19.25
